Time;durP1;ratioP1;P1;durP2;ratioP2;P2;SDS_P1;SDS_P2;PMS_P1;PMS_P2;Temp;Humidity;BMP_temperature;BMP_pressure;BME280_temperature;BME280_humidity;BME280_pressure;Samples;Min_cycle;Max_cycle;Signal;HPM_P1;HPM_P2
2021/09/18 00:01:31;;;;;;;7.83;4.08;;;;;;;23.71;50.95;98417.56;1702729;82;21040;-46
2021/09/18 00:03:58;;;;;;;6.12;3.85;;;;;;;23.70;51.02;98411.02;1687854;83;21048;-46
2021/09/18 00:06:24;;;;;;;4.85;3.67;;;;;;;23.70;50.94;98409.67;1703974;82;20981;-45
2021/09/18 00:08:52;;;;;;;5.05;3.80;;;;;;;23.70;50.87;98409.19;1718019;82;21018;-46
2021/09/18 00:11:20;;;;;;;8.08;3.75;;;;;;;23.70;51.00;98402.47;1719095;82;21142;-44
2021/09/18 00:13:47;;;;;;;8.48;4.30;;;;;;;23.68;50.89;98401.77;1708913;82;21489;-45
2021/09/18 00:16:15;;;;;;;3.95;3.60;;;;;;;23.70;50.99;98408.33;1692956;83;21028;-45
2021/09/18 00:18:43;;;;;;;4.67;3.42;;;;;;;23.70;50.92;98401.13;1686641;83;21022;-45
2021/09/18 00:21:11;;;;;;;4.85;3.70;;;;;;;23.69;50.95;98398.09;1682844;83;20955;-44
2021/09/18 00:23:38;;;;;;;6.35;3.52;;;;;;;23.70;51.09;98395.77;1677060;83;21083;-45
2021/09/18 00:26:05;;;;;;;8.05;3.95;;;;;;;23.68;51.07;98387.00;1658142;85;21012;-44
2021/09/18 00:28:31;;;;;;;4.58;3.90;;;;;;;23.68;51.10;98388.86;1677190;85;21025;-44
2021/09/18 00:30:59;;;;;;;6.17;3.75;;;;;;;23.67;51.10;98390.72;1653695;84;21553;-48
2021/09/18 00:33:27;;;;;;;4.37;3.30;;;;;;;23.68;51.05;98392.89;1659046;85;20978;-45
2021/09/18 00:35:54;;;;;;;7.37;4.03;;;;;;;23.68;51.08;98392.89;1658923;84;21071;-45
2021/09/18 00:38:20;;;;;;;8.25;4.33;;;;;;;23.67;51.23;98389.38;1676113;84;20996;-44
2021/09/18 00:40:48;;;;;;;5.67;3.47;;;;;;;23.67;51.18;98389.38;1701255;83;21466;-45
2021/09/18 00:43:16;;;;;;;5.62;3.35;;;;;;;23.66;51.23;98382.31;1692718;83;21181;-45
2021/09/18 00:45:44;;;;;;;8.05;3.50;;;;;;;23.66;51.18;98379.63;1686500;83;21597;-45
2021/09/18 00:48:12;;;;;;;7.78;4.08;;;;;;;23.67;51.32;98379.11;1721613;82;22084;-44
2021/09/18 00:50:41;;;;;;;4.80;3.77;;;;;;;23.67;51.35;98377.77;1728391;82;21091;-44
2021/09/18 00:53:08;;;;;;;5.83;3.60;;;;;;;23.66;51.30;98374.77;1678699;82;21516;-46
2021/09/18 00:55:35;;;;;;;8.25;3.52;;;;;;;23.66;51.20;98376.94;1701091;82;21024;-44
2021/09/18 00:58:02;;;;;;;4.20;3.55;;;;;;;23.67;51.32;98373.74;1721981;82;21111;-47
2021/09/18 01:00:29;;;;;;;8.35;4.22;;;;;;;23.66;51.61;98371.56;1675622;83;21071;-45
2021/09/18 01:02:55;;;;;;;11.00;4.25;;;;;;;23.66;51.53;98366.20;1683229;83;21059;-44
2021/09/18 01:05:22;;;;;;;9.33;3.83;;;;;;;23.66;51.60;98360.83;1695201;82;21113;-46
2021/09/18 01:07:50;;;;;;;5.37;4.03;;;;;;;23.64;51.55;98357.47;1697411;83;21052;-45
2021/09/18 01:10:16;;;;;;;7.90;3.92;;;;;;;23.66;51.52;98362.68;1685953;83;21059;-46
2021/09/18 01:13:05;;;;;;;6.08;3.85;;;;;;;23.65;51.63;98356.45;1683775;82;20979;-46
2021/09/18 01:15:35;;;;;;;6.40;3.72;;;;;;;23.65;51.64;98355.11;1699145;83;21556;-46
2021/09/18 01:18:02;;;;;;;9.50;4.17;;;;;;;23.65;51.59;98353.77;1683751;83;21052;-45
2021/09/18 01:20:31;;;;;;;5.85;3.83;;;;;;;23.65;51.74;98347.05;1709503;82;20971;-45
2021/09/18 01:22:59;;;;;;;8.00;4.17;;;;;;;23.65;51.85;98336.82;1722382;82;21139;-45
2021/09/18 01:25:30;;;;;;;6.72;4.03;;;;;;;23.66;51.86;98342.03;1712738;82;22242;-46
2021/09/18 01:27:58;;;;;;;5.15;4.00;;;;;;;23.65;51.82;98333.63;1694863;82;21066;-44
2021/09/18 01:30:29;;;;;;;4.37;3.50;;;;;;;23.64;51.79;98335.98;1696982;83;22236;-44
2021/09/18 01:32:56;;;;;;;7.03;4.05;;;;;;;23.64;51.73;98338.67;1707260;83;21035;-45
2021/09/18 01:35:23;;;;;;;8.90;4.20;;;;;;;23.64;51.85;98333.30;1705940;82;21381;-45
2021/09/18 01:37:50;;;;;;;8.95;4.12;;;;;;;23.64;51.83;98335.98;1691850;82;21063;-45
2021/09/18 01:40:29;;;;;;;9.23;4.70;;;;;;;23.64;51.88;98335.16;1727363;82;21040;-47
2021/09/18 01:42:56;;;;;;;5.08;4.05;;;;;;;23.65;51.95;98328.25;1721227;82;21046;-45
2021/09/18 01:45:23;;;;;;;10.68;4.20;;;;;;;23.65;52.08;98320.20;1714295;82;21081;-47
2021/09/18 01:47:57;;;;;;;8.35;4.15;;;;;;;23.64;52.04;98321.22;1657410;82;21185;-46
2021/09/18 01:50:31;;;;;;;7.53;4.10;;;;;;;23.64;52.06;98322.56;1697393;82;21048;-45
2021/09/18 01:53:01;;;;;;;8.35;4.17;;;;;;;23.64;52.03;98318.53;1664861;83;21071;-46
2021/09/18 01:55:27;;;;;;;9.03;4.40;;;;;;;23.64;52.08;98313.16;1694878;82;21055;-45
2021/09/18 01:57:55;;;;;;;6.15;3.65;;;;;;;23.64;52.11;98313.68;1703140;83;21052;-45
2021/09/18 02:00:22;;;;;;;7.08;3.98;;;;;;;23.63;52.11;98304.77;1714102;82;21074;-47
2021/09/18 02:02:49;;;;;;;4.40;4.00;;;;;;;23.64;52.29;98302.94;1694689;83;21635;-45
2021/09/18 02:05:19;;;;;;;6.37;4.95;;;;;;;23.64;51.95;98303.77;1680272;82;21073;-45
2021/09/18 02:07:45;;;;;;;7.42;4.67;;;;;;;23.64;52.01;98304.28;1700288;82;21121;-45
2021/09/18 02:10:15;;;;;;;7.20;4.00;;;;;;;23.63;52.07;98299.39;1674222;84;21272;-46
2021/09/18 02:12:45;;;;;;;6.33;4.05;;;;;;;23.64;52.22;98298.91;1684451;82;21046;-46
2021/09/18 02:15:12;;;;;;;8.55;4.22;;;;;;;23.63;52.05;98298.56;1697469;81;21329;-45
2021/09/18 02:17:41;;;;;;;10.03;3.98;;;;;;;23.63;52.11;98285.97;1697322;83;21134;-44
2021/09/18 02:20:13;;;;;;;28.35;4.62;;;;;;;23.64;52.07;98289.52;1688855;82;21119;-45
2021/09/18 02:22:40;;;;;;;12.80;4.25;;;;;;;23.63;52.32;98292.67;1673050;82;21190;-42
2021/09/18 02:25:08;;;;;;;10.20;4.45;;;;;;;23.63;52.13;98281.94;1695519;83;22205;-44
2021/09/18 02:27:34;;;;;;;45.50;23.75;;;;;;;23.65;52.19;98287.97;1673624;83;21585;-44
2021/09/18 02:30:02;;;;;;;21.20;11.73;;;;;;;23.67;52.58;98285.98;1699529;82;21075;-45
2021/09/18 02:32:28;;;;;;;20.25;9.65;;;;;;;23.68;52.79;98283.62;1679851;83;21109;-43
2021/09/18 02:34:56;;;;;;;22.98;9.45;;;;;;;23.67;52.79;98286.47;1693202;82;21043;-45
2021/09/18 02:37:24;;;;;;;20.40;7.87;;;;;;;23.66;52.87;98280.27;1699356;82;21209;-46
2021/09/18 02:39:52;;;;;;;23.90;8.05;;;;;;;23.65;53.03;98284.45;1697617;82;20997;-44
2021/09/18 02:42:20;;;;;;;14.33;7.15;;;;;;;23.62;53.18;98281.62;1696787;83;21002;-43
2021/09/18 02:44:47;;;;;;;14.10;6.95;;;;;;;23.61;53.47;98283.95;1682519;83;21108;-44
2021/09/18 02:47:15;;;;;;;14.40;7.22;;;;;;;23.60;53.36;98286.30;1695489;82;21081;-43
2021/09/18 02:49:41;;;;;;;11.65;6.28;;;;;;;23.60;53.43;98288.98;1682805;82;21122;-45
2021/09/18 02:52:07;;;;;;;16.77;5.92;;;;;;;23.59;53.57;98284.63;1704078;83;21034;-46
2021/09/18 02:54:34;;;;;;;9.03;5.97;;;;;;;23.58;53.65;98280.26;1650556;84;21003;-45
2021/09/18 02:57:02;;;;;;;10.20;5.67;;;;;;;23.58;53.69;98278.91;1692597;83;21490;-43
2021/09/18 02:59:30;;;;;;;10.15;6.03;;;;;;;23.58;53.83;98280.26;1694168;82;21161;-43
2021/09/18 03:01:57;;;;;;;9.55;5.90;;;;;;;23.57;54.01;98278.59;1715827;81;21141;-43
2021/09/18 03:04:24;;;;;;;12.60;5.92;;;;;;;23.54;54.12;98279.76;1673231;83;21205;-43
2021/09/18 03:06:50;;;;;;;12.65;6.42;;;;;;;23.53;54.17;98277.23;1671565;82;21127;-48
2021/09/18 03:09:18;;;;;;;13.85;6.37;;;;;;;23.52;54.29;98272.89;1675766;82;21015;-44
2021/09/18 03:11:46;;;;;;;11.43;6.08;;;;;;;23.51;54.44;98272.54;1710384;82;21049;-45
2021/09/18 03:14:14;;;;;;;12.37;5.42;;;;;;;23.50;54.36;98270.85;1698995;83;21042;-45
2021/09/18 03:16:40;;;;;;;7.75;5.55;;;;;;;23.50;54.43;98270.85;1707582;82;21544;-44
2021/09/18 03:19:08;;;;;;;16.65;5.83;;;;;;;23.50;54.45;98273.53;1693111;82;21093;-44
2021/09/18 03:21:35;;;;;;;6.58;5.67;;;;;;;23.50;54.39;98270.37;1703569;82;21621;-44
2021/09/18 03:24:01;;;;;;;7.60;5.60;;;;;;;23.50;54.44;98265.48;1690692;83;21107;-45
2021/09/18 03:26:28;;;;;;;11.30;5.70;;;;;;;23.49;54.57;98263.31;1712019;81;21729;-45
2021/09/18 03:28:56;;;;;;;7.80;5.67;;;;;;;23.49;54.54;98257.11;1693007;83;21073;-43
2021/09/18 03:31:23;;;;;;;10.25;5.37;;;;;;;23.48;54.52;98250.88;1696831;83;21056;-43
2021/09/18 03:33:50;;;;;;;12.03;5.90;;;;;;;23.51;54.45;98249.72;1655690;83;21082;-43
2021/09/18 03:36:17;;;;;;;11.12;5.55;;;;;;;23.50;54.67;98248.03;1671343;84;21143;-43
2021/09/18 03:38:44;;;;;;;11.57;5.90;;;;;;;23.50;54.63;98249.38;1672520;83;21940;-44
2021/09/18 03:41:12;;;;;;;6.55;5.33;;;;;;;23.50;54.64;98252.06;1693144;83;21079;-45
2021/09/18 03:43:40;;;;;;;8.28;5.15;;;;;;;23.49;54.53;98246.38;1690772;82;21065;-44
2021/09/18 03:46:08;;;;;;;10.28;5.22;;;;;;;23.48;54.58;98250.05;1649374;84;22379;-45
2021/09/18 03:48:36;;;;;;;10.68;5.35;;;;;;;23.48;54.52;98249.53;1665133;83;21495;-44
2021/09/18 03:51:04;;;;;;;8.08;4.87;;;;;;;23.48;54.51;98245.52;1677526;82;22183;-44
2021/09/18 03:53:31;;;;;;;11.50;5.33;;;;;;;23.49;54.57;98244.52;1661833;85;21066;-44
2021/09/18 03:55:58;;;;;;;8.85;5.42;;;;;;;23.49;54.59;98245.03;1665579;84;21048;-44
2021/09/18 03:58:25;;;;;;;7.62;5.30;;;;;;;23.50;54.60;98244.00;1672391;83;21165;-44
2021/09/18 04:00:51;;;;;;;10.78;4.87;;;;;;;23.49;54.73;98238.32;1667322;83;21599;-44
2021/09/18 04:03:17;;;;;;;11.30;5.42;;;;;;;23.47;54.85;98244.33;1676107;83;21105;-45
2021/09/18 04:05:45;;;;;;;14.18;6.12;;;;;;;23.47;54.89;98240.31;1678565;85;21176;-44
2021/09/18 04:08:11;;;;;;;9.78;5.50;;;;;;;23.46;54.89;98234.62;1685828;82;22181;-44
2021/09/18 04:10:39;;;;;;;8.25;5.58;;;;;;;23.46;54.92;98227.40;1702392;82;21135;-44
2021/09/18 04:13:08;;;;;;;8.85;5.40;;;;;;;23.47;55.00;98230.43;1700802;83;21041;-43
2021/09/18 04:15:34;;;;;;;7.10;5.40;;;;;;;23.47;54.95;98229.56;1695305;82;21631;-44
2021/09/18 04:18:02;;;;;;;10.45;5.67;;;;;;;23.47;54.92;98233.59;1687379;83;21033;-45
2021/09/18 04:20:30;;;;;;;12.33;5.47;;;;;;;23.48;55.01;98227.23;1693702;82;21113;-45
2021/09/18 04:22:58;;;;;;;6.72;4.55;;;;;;;23.49;55.08;98235.63;1708314;82;21547;-43
2021/09/18 04:25:25;;;;;;;10.10;4.83;;;;;;;23.51;54.41;98233.10;1667980;84;21035;-45
2021/09/18 04:27:51;;;;;;;5.55;4.20;;;;;;;23.52;53.67;98227.25;1640524;84;21276;-45
2021/09/18 04:30:20;;;;;;;7.97;4.80;;;;;;;23.52;52.90;98233.45;1669080;84;21879;-45
2021/09/18 04:32:46;;;;;;;9.08;4.60;;;;;;;23.53;52.72;98226.22;1667270;84;21091;-46
2021/09/18 04:35:15;;;;;;;7.35;4.62;;;;;;;23.54;52.78;98228.74;1665621;84;21617;-44
2021/09/18 04:37:41;;;;;;;7.17;4.95;;;;;;;23.55;52.80;98230.44;1658677;84;21119;-44
2021/09/18 04:40:11;;;;;;;10.05;4.67;;;;;;;23.57;52.86;98228.93;1666465;84;21058;-43
2021/09/18 04:42:38;;;;;;;7.95;5.12;;;;;;;23.59;52.92;98228.25;1635092;85;21091;-46
2021/09/18 04:45:07;;;;;;;7.83;4.58;;;;;;;23.60;52.93;98228.56;1655348;84;21103;-44
2021/09/18 04:47:34;;;;;;;7.15;4.85;;;;;;;23.62;52.85;98225.72;1622614;85;20992;-44
2021/09/18 04:50:00;;;;;;;8.45;4.95;;;;;;;23.63;52.85;98234.95;1671835;84;21122;-46
2021/09/18 04:52:27;;;;;;;9.35;5.37;;;;;;;23.65;52.91;98220.02;1649629;86;22237;-44
2021/09/18 04:54:53;;;;;;;5.95;5.08;;;;;;;23.66;52.90;98225.22;1666763;84;21090;-44
2021/09/18 04:57:21;;;;;;;7.50;4.45;;;;;;;23.69;53.00;98224.06;1668013;84;21305;-43
2021/09/18 04:59:49;;;;;;;6.35;4.65;;;;;;;23.72;52.96;98224.55;1656879;84;21609;-44
2021/09/18 05:02:17;;;;;;;8.55;5.33;;;;;;;23.72;52.96;98222.35;1634510;86;21051;-44
2021/09/18 05:04:44;;;;;;;5.50;4.55;;;;;;;23.74;52.98;98225.73;1640015;85;21062;-44
2021/09/18 05:07:10;;;;;;;9.98;4.65;;;;;;;23.76;52.88;98232.28;1676354;83;21114;-47
2021/09/18 05:09:36;;;;;;;5.33;4.30;;;;;;;23.78;52.82;98223.55;1660395;84;22241;-44
2021/09/18 05:12:04;;;;;;;7.05;4.70;;;;;;;23.80;52.79;98234.95;1634820;85;21574;-44
2021/09/18 05:14:31;;;;;;;10.03;4.50;;;;;;;23.80;52.78;98227.72;1651188;84;21097;-44
2021/09/18 05:16:58;;;;;;;6.45;4.70;;;;;;;23.83;52.37;98231.96;1702520;82;22493;-45
2021/09/18 05:19:25;;;;;;;5.20;3.83;;;;;;;23.84;52.01;98229.11;1718643;82;21036;-45
2021/09/18 05:21:52;;;;;;;5.53;3.60;;;;;;;23.86;51.75;98232.45;1692699;82;21046;-45
2021/09/18 05:24:19;;;;;;;7.33;3.77;;;;;;;23.88;51.45;98226.92;1690818;82;20933;-45
2021/09/18 05:26:47;;;;;;;5.25;3.80;;;;;;;23.90;51.37;98216.84;1707422;82;21088;-43
2021/09/18 05:29:14;;;;;;;7.72;3.98;;;;;;;23.92;51.03;98217.02;1662827;83;21225;-44
2021/09/18 05:31:42;;;;;;;7.70;4.22;;;;;;;23.95;50.85;98209.10;1700521;82;21041;-45
2021/09/18 05:34:09;;;;;;;12.33;4.97;;;;;;;23.98;51.04;98213.31;1689321;83;21072;-45
2021/09/18 05:36:36;;;;;;;20.40;5.12;;;;;;;23.99;51.32;98213.14;1672635;83;21574;-44
2021/09/18 05:39:03;;;;;;;8.60;5.03;;;;;;;24.01;51.54;98211.12;1666431;84;21063;-46
2021/09/18 05:41:31;;;;;;;11.80;4.87;;;;;;;24.04;51.82;98212.61;1672763;84;22272;-46
2021/09/18 05:43:58;;;;;;;10.48;5.35;;;;;;;24.07;51.86;98209.58;1674684;84;21055;-45
2021/09/18 05:46:25;;;;;;;8.78;4.72;;;;;;;24.09;51.68;98217.83;1662236;84;21064;-47
2021/09/18 05:48:53;;;;;;;9.40;4.83;;;;;;;24.11;51.49;98214.45;1655849;84;21080;-44
2021/09/18 05:51:20;;;;;;;9.50;5.03;;;;;;;24.14;51.27;98217.80;1667513;84;21060;-47
2021/09/18 05:53:48;;;;;;;9.43;5.65;;;;;;;24.17;51.10;98213.43;1673992;83;21178;-46
2021/09/18 05:56:15;;;;;;;9.80;5.97;;;;;;;24.18;50.91;98219.15;1686530;83;21436;-47
2021/09/18 05:58:43;;;;;;;8.78;4.85;;;;;;;24.19;51.09;98209.58;1664405;83;21090;-46
2021/09/18 06:01:09;;;;;;;8.88;5.67;;;;;;;24.21;50.81;98212.06;1663291;85;20988;-45
2021/09/18 06:03:37;;;;;;;9.08;5.03;;;;;;;24.22;50.84;98217.78;1660227;85;21606;-45
2021/09/18 06:06:03;;;;;;;10.00;5.42;;;;;;;24.24;51.02;98219.30;1641432;85;21189;-45
2021/09/18 06:08:29;;;;;;;8.23;4.80;;;;;;;24.26;51.12;98217.78;1640157;85;20991;-44
2021/09/18 06:10:56;;;;;;;6.30;4.70;;;;;;;24.29;51.05;98221.45;1640710;85;21052;-46
2021/09/18 06:13:24;;;;;;;7.78;5.00;;;;;;;24.30;51.03;98219.11;1661694;85;21108;-45
2021/09/18 06:15:50;;;;;;;5.62;4.90;;;;;;;24.32;50.84;98217.59;1654744;85;22332;-43
2021/09/18 06:18:18;;;;;;;7.20;4.72;;;;;;;24.33;50.62;98209.36;1660086;85;21051;-44
2021/09/18 06:20:45;;;;;;;7.78;5.10;;;;;;;24.35;50.43;98210.02;1657799;85;22037;-45
2021/09/18 06:23:12;;;;;;;8.83;4.87;;;;;;;24.38;50.24;98216.91;1658986;85;21139;-44
2021/09/18 06:25:39;;;;;;;13.95;5.42;;;;;;;24.40;50.25;98210.84;1658639;85;21131;-44
2021/09/18 06:28:06;;;;;;;10.53;5.50;;;;;;;24.41;50.02;98214.70;1659500;85;21075;-43
2021/09/18 06:30:34;;;;;;;8.38;5.25;;;;;;;24.44;49.98;98218.40;1662386;85;21015;-44
2021/09/18 06:33:01;;;;;;;52.05;22.17;;;;;;;24.45;49.96;98222.75;1659052;85;21052;-46
2021/09/18 06:35:29;;;;;;;17.98;10.60;;;;;;;24.47;49.89;98222.06;1663544;85;21072;-46
2021/09/18 06:37:55;;;;;;;13.30;8.60;;;;;;;24.50;49.98;98234.84;1657781;85;21008;-47
2021/09/18 06:40:21;;;;;;;11.90;7.17;;;;;;;24.50;49.76;98229.47;1655565;85;21482;-47
2021/09/18 06:42:48;;;;;;;16.62;7.80;;;;;;;24.51;49.73;98229.78;1659818;85;21147;-46
2021/09/18 06:45:15;;;;;;;13.40;6.78;;;;;;;24.53;49.58;98227.75;1657875;85;21939;-44
2021/09/18 06:47:41;;;;;;;13.65;8.65;;;;;;;24.54;49.55;98229.44;1676059;84;21012;-44
2021/09/18 06:50:10;;;;;;;13.08;7.87;;;;;;;24.55;49.14;98226.61;1676309;84;21066;-45
2021/09/18 06:52:36;;;;;;;11.65;7.33;;;;;;;24.54;46.78;98229.44;1654883;85;21118;-44
2021/09/18 06:55:06;;;;;;;11.60;7.22;;;;;;;24.50;45.71;98222.75;1656106;85;21215;-44
2021/09/18 06:57:35;;;;;;;9.55;6.95;;;;;;;24.46;47.55;98219.05;1646346;85;21031;-44
2021/09/18 07:00:05;;;;;;;12.85;6.58;;;;;;;24.44;49.23;98217.05;1653894;85;21093;-44
2021/09/18 07:02:31;;;;;;;9.80;6.35;;;;;;;24.43;50.06;98209.16;1642242;85;21533;-44
2021/09/18 07:05:00;;;;;;;9.83;6.33;;;;;;;24.43;50.35;98207.30;1646235;85;21110;-45
2021/09/18 07:07:28;;;;;;;8.78;6.80;;;;;;;24.43;50.22;98205.95;1645512;84;21127;-44
2021/09/18 07:09:54;;;;;;;8.95;6.17;;;;;;;24.45;50.06;98211.16;1648017;85;21562;-45
2021/09/18 07:12:21;;;;;;;10.08;6.70;;;;;;;24.46;49.92;98209.64;1651658;84;21158;-44
2021/09/18 07:14:47;;;;;;;7.78;5.97;;;;;;;24.48;49.75;98210.30;1627387;85;22171;-44
2021/09/18 07:17:14;;;;;;;10.75;6.17;;;;;;;24.49;49.66;98212.48;1656717;84;21128;-45
2021/09/18 07:19:42;;;;;;;11.25;5.60;;;;;;;24.50;49.57;98207.44;1660932;83;21682;-43
2021/09/18 07:22:08;;;;;;;8.30;5.95;;;;;;;24.52;49.51;98204.58;1696509;83;21105;-44
2021/09/18 07:24:35;;;;;;;9.83;6.20;;;;;;;24.52;49.42;98204.58;1677902;82;21550;-45
2021/09/18 07:27:02;;;;;;;7.95;6.08;;;;;;;24.53;49.34;98201.72;1675044;83;21036;-45
2021/09/18 07:29:28;;;;;;;8.48;5.87;;;;;;;24.53;49.28;98211.13;1662868;82;21024;-47
2021/09/18 07:31:55;;;;;;;7.90;5.85;;;;;;;24.55;49.30;98212.34;1653327;83;21138;-46
2021/09/18 07:34:21;;;;;;;8.05;5.62;;;;;;;24.55;49.37;98205.61;1618818;86;21999;-46
2021/09/18 07:36:48;;;;;;;8.23;5.53;;;;;;;24.56;49.39;98214.00;1624744;84;21147;-46
2021/09/18 07:39:15;;;;;;;7.70;5.33;;;;;;;24.57;49.03;98212.99;1678464;82;21968;-47
2021/09/18 07:41:42;;;;;;;9.73;6.45;;;;;;;24.56;47.18;98209.96;1670533;82;21054;-47
2021/09/18 07:44:09;;;;;;;8.28;5.17;;;;;;;24.53;46.12;98211.62;1696801;82;22156;-47
2021/09/18 07:46:35;;;;;;;8.90;5.22;;;;;;;24.51;47.92;98224.41;1673815;83;21047;-45
2021/09/18 07:49:01;;;;;;;8.43;5.47;;;;;;;24.50;49.32;98227.61;1666401;83;20995;-44
2021/09/18 07:51:28;;;;;;;10.40;5.75;;;;;;;24.50;49.98;98226.78;1693083;82;21074;-44
2021/09/18 07:53:55;;;;;;;9.25;5.58;;;;;;;24.51;49.99;98225.75;1695290;82;21046;-44
2021/09/18 07:56:21;;;;;;;14.50;5.42;;;;;;;24.54;49.83;98228.09;1684492;82;21100;-43
2021/09/18 07:58:47;;;;;;;11.85;5.20;;;;;;;24.57;49.64;98229.95;1690701;82;21940;-45
2021/09/18 08:01:15;;;;;;;8.18;5.42;;;;;;;24.59;49.48;98224.41;1666325;83;20996;-44
2021/09/18 08:03:41;;;;;;;8.45;4.40;;;;;;;24.62;49.27;98224.89;1691360;82;21079;-45
2021/09/18 08:06:10;;;;;;;8.20;3.72;;;;;;;24.66;49.11;98230.75;1690405;81;21081;-46
2021/09/18 08:08:36;;;;;;;4.67;4.05;;;;;;;24.71;48.90;98227.03;1695980;82;22020;-43
2021/09/18 08:11:02;;;;;;;7.45;4.40;;;;;;;24.75;48.64;98230.23;1700649;82;21103;-44
2021/09/18 08:13:29;;;;;;;16.32;7.92;;;;;;;24.77;48.51;98233.06;1694621;82;22071;-43
2021/09/18 08:15:55;;;;;;;19.80;8.80;;;;;;;24.80;48.03;98234.58;1673514;82;21042;-45
2021/09/18 08:18:21;;;;;;;6.97;5.00;;;;;;;24.84;46.11;98235.89;1679389;82;21068;-47
2021/09/18 08:20:49;;;;;;;5.25;3.27;;;;;;;24.84;45.23;98234.03;1694829;82;21508;-46
2021/09/18 08:23:16;;;;;;;6.22;2.80;;;;;;;24.84;47.21;98236.72;1682829;82;20997;-49
2021/09/18 08:25:42;;;;;;;5.40;2.92;;;;;;;24.83;48.09;98243.14;1675005;83;21012;-47
2021/09/18 08:28:09;;;;;;;2.65;2.40;;;;;;;24.81;48.60;98242.97;1609114;84;21019;-48
2021/09/18 08:30:35;;;;;;;4.03;2.37;;;;;;;24.79;48.44;98247.17;1668279;83;21537;-49
2021/09/18 08:33:03;;;;;;;5.60;2.33;;;;;;;24.79;48.18;98250.38;1667717;83;21034;-48
2021/09/18 08:35:30;;;;;;;8.13;2.10;;;;;;;24.80;48.06;98254.24;1678104;83;21051;-52
2021/09/18 08:37:57;;;;;;;6.37;2.47;;;;;;;24.79;47.84;98252.55;1652304;83;21948;-50
2021/09/18 08:40:25;;;;;;;4.00;2.33;;;;;;;24.79;47.89;98251.72;1668284;83;21022;-48
2021/09/18 08:42:53;;;;;;;5.53;2.40;;;;;;;24.80;47.75;98252.06;1658282;83;21220;-50
2021/09/18 08:45:19;;;;;;;2.12;2.02;;;;;;;24.80;47.61;98245.34;1657082;83;21139;-46
2021/09/18 08:47:46;;;;;;;3.30;2.52;;;;;;;24.80;46.17;98250.72;1679458;82;21067;-49
2021/09/18 08:50:16;;;;;;;4.47;1.75;;;;;;;24.77;45.09;98248.37;1672014;83;21043;-48
2021/09/18 08:52:42;;;;;;;1.80;1.70;;;;;;;24.70;46.40;98250.92;1668650;83;21145;-50
2021/09/18 08:55:09;;;;;;;2.50;1.40;;;;;;;24.65;47.79;98255.99;1631454;85;21986;-49
2021/09/18 08:57:36;;;;;;;1.57;1.47;;;;;;;24.61;48.32;98253.30;1606473;86;21156;-49
2021/09/18 09:00:04;;;;;;;4.12;1.75;;;;;;;24.58;48.41;98262.57;1627190;85;21052;-49
2021/09/18 09:02:31;;;;;;;1.62;1.52;;;;;;;24.57;48.37;98258.70;1617959;85;21088;-51
2021/09/18 09:05:07;;;;;;;3.08;1.70;;;;;;;24.57;48.30;98258.70;1631516;85;21032;-49
2021/09/18 09:07:33;;;;;;;2.05;1.65;;;;;;;24.57;48.30;98262.74;1670551;83;21020;-48
2021/09/18 09:10:02;;;;;;;3.42;1.67;;;;;;;24.55;48.32;98263.43;1636867;84;22272;-52
2021/09/18 09:12:36;;;;;;;1.60;1.50;;;;;;;24.54;48.43;98269.26;1613714;85;21957;-49
2021/09/18 09:15:06;;;;;;;5.53;1.52;;;;;;;24.51;47.84;98264.73;1630263;84;22070;-51
2021/09/18 09:17:36;;;;;;;1.60;1.50;;;;;;;24.45;45.92;98272.48;1616795;86;21120;-52
2021/09/18 09:20:04;;;;;;;1.62;1.45;;;;;;;24.39;46.78;98275.02;1632412;85;21023;-50
2021/09/18 09:22:47;;;;;;;2.95;1.57;;;;;;;24.32;48.22;98278.90;1696758;82;21690;-47
2021/09/18 09:25:25;;;;;;;3.67;1.30;;;;;;;24.25;49.10;98290.01;1704068;82;21581;-49
2021/09/18 09:27:53;;;;;;;1.30;1.20;;;;;;;24.15;49.36;98296.08;1689748;83;21003;-50
2021/09/18 09:30:33;;;;;;;1.67;1.10;;;;;;;24.03;49.48;98292.89;1675734;83;21044;-48
2021/09/18 09:33:06;;;;;;;1.22;1.12;;;;;;;23.97;49.53;98299.77;1676105;83;21054;-49
2021/09/18 09:35:33;;;;;;;1.77;1.20;;;;;;;23.91;49.53;98298.60;1683196;83;23176;-50
2021/09/18 09:37:59;;;;;;;0.90;0.90;;;;;;;23.87;49.48;98303.98;1694972;82;21074;-52
2021/09/18 09:40:48;;;;;;;1.47;1.37;;;;;;;23.85;49.54;98307.83;1691127;82;21511;-48
2021/09/18 09:43:18;;;;;;;1.90;1.20;;;;;;;23.82;49.45;98309.03;1662447;83;20987;-47
2021/09/18 09:45:46;;;;;;;2.12;1.22;;;;;;;23.80;49.45;98320.89;1664327;83;21083;-48
2021/09/18 09:48:17;;;;;;;3.25;1.17;;;;;;;23.77;49.42;98323.91;1634375;85;21223;-47
2021/09/18 09:50:46;;;;;;;1.62;1.00;;;;;;;23.68;49.38;98317.19;1624902;86;21162;-48
2021/09/18 09:53:29;;;;;;;1.25;1.15;;;;;;;23.68;49.37;98325.75;1630461;86;21215;-47
2021/09/18 09:55:55;;;;;;;3.72;0.90;;;;;;;23.66;49.34;98323.23;1627821;85;21111;-47
2021/09/18 09:58:22;;;;;;;3.45;1.12;;;;;;;23.64;49.20;98325.25;1667904;84;20976;-49
2021/09/18 10:00:52;;;;;;;1.30;1.00;;;;;;;23.63;49.17;98326.24;1642857;85;21186;-49
2021/09/18 10:03:23;;;;;;;1.30;1.00;;;;;;;23.62;49.22;98325.92;1635609;85;21281;-48
2021/09/18 10:05:51;;;;;;;12.03;7.72;;;;;;;23.61;49.19;98321.55;1641620;85;21148;-48
2021/09/18 10:08:24;;;;;;;8.38;3.60;;;;;;;23.62;49.36;98324.58;1658057;85;21082;-46
2021/09/18 10:10:52;;;;;;;7.28;3.10;;;;;;;23.64;49.25;98321.22;1669604;84;21060;-45
2021/09/18 10:13:24;;;;;;;3.55;2.83;;;;;;;23.67;49.18;98326.27;1619840;86;21612;-46
2021/09/18 10:15:52;;;;;;;5.80;2.55;;;;;;;23.68;49.04;98317.19;1606308;86;21047;-45
2021/09/18 10:18:20;;;;;;;3.20;2.17;;;;;;;23.69;48.95;98321.56;1628647;85;21113;-47
2021/09/18 10:23:24;;;;;;;3.62;1.77;;;;;;;23.74;48.82;98328.61;1656964;84;21058;-45
2021/09/18 10:25:55;;;;;;;4.75;2.15;;;;;;;23.76;48.75;98326.28;1661590;83;21446;-47
2021/09/18 10:28:29;;;;;;;2.33;1.57;;;;;;;23.77;48.75;98330.14;1660077;84;21057;-45
2021/09/18 10:31:00;;;;;;;3.58;2.15;;;;;;;23.80;48.80;98341.04;1631351;86;21043;-46
2021/09/18 10:33:49;;;;;;;3.17;1.85;;;;;;;23.81;48.79;98334.16;1636555;86;21035;-45
2021/09/18 10:36:23;;;;;;;72.27;53.05;;;;;;;23.84;48.72;98337.89;1643848;85;21253;-43
2021/09/18 10:39:08;;;;;;;;;;;;;;;23.86;48.64;98334.53;1649259;84;21182;-45
2021/09/18 10:41:57;;;;;;;9.13;6.62;;;;;;;23.86;48.51;98345.27;1664334;84;20155;-44
2021/09/18 10:44:27;;;;;;;5.05;4.10;;;;;;;23.85;48.54;98346.78;1655543;85;21593;-44
2021/09/18 10:47:01;;;;;;;3.40;3.10;;;;;;;23.84;48.61;98350.46;1668730;83;21128;-44
2021/09/18 10:49:40;;;;;;;3.15;2.90;;;;;;;23.85;48.46;98352.16;1683161;82;21475;-44
2021/09/18 10:52:33;;;;;;;3.15;1.60;;;;;;;23.83;48.52;98352.83;1697856;82;21088;-44
2021/09/18 10:55:08;;;;;;;2.02;1.75;;;;;;;23.82;48.40;98345.28;1693353;82;21119;-45
2021/09/18 10:57:48;;;;;;;3.80;1.75;;;;;;;23.82;48.22;98351.14;1696795;81;21096;-44
2021/09/18 11:00:27;;;;;;;1.32;1.07;;;;;;;23.81;48.15;98358.84;1687602;82;21111;-44
2021/09/18 11:02:58;;;;;;;1.98;1.00;;;;;;;23.81;47.87;98357.50;1691692;82;21070;-44
2021/09/18 11:05:39;;;;;;;1.32;1.00;;;;;;;23.81;47.82;98360.19;1690672;83;21133;-45
2021/09/18 11:08:19;;;;;;;1.72;1.20;;;;;;;23.80;47.49;98362.02;1678706;84;20952;-46
2021/09/18 11:11:12;;;;;;;0.60;0.60;;;;;;;23.79;47.50;98360.35;1664537;83;21110;-44
2021/09/18 11:13:44;;;;;;;37.48;16.23;;;;;;;23.81;47.12;98360.19;1673352;83;21069;-43
2021/09/18 11:16:33;;;;;;;10.63;5.40;;;;;;;23.79;46.80;98368.89;1643759;85;21167;-45
2021/09/18 11:19:08;;;;;;;5.85;2.92;;;;;;;23.77;46.68;98362.37;1673246;84;21154;-49
2021/09/18 11:21:40;;;;;;;3.25;2.15;;;;;;;23.77;46.58;98370.43;1676308;83;21142;-45
2021/09/18 11:24:24;;;;;;;2.42;1.70;;;;;;;23.77;46.58;98378.97;1665077;84;22172;-46
2021/09/18 11:26:52;;;;;;;1.77;1.57;;;;;;;23.75;46.10;98373.76;1647283;83;21110;-46
2021/09/18 11:29:33;;;;;;;8.00;1.60;;;;;;;23.71;44.67;98385.34;1642926;84;21050;-48
2021/09/18 11:32:14;;;;;;;2.33;1.50;;;;;;;23.66;43.97;98387.68;1638690;85;21042;-46
2021/09/18 11:34:48;;;;;;;3.70;1.20;;;;;;;23.60;44.17;98388.33;1645427;86;21043;-46
2021/09/18 11:37:23;;;;;;;1.35;1.00;;;;;;;23.56;44.71;98385.64;1637675;86;21137;-46
2021/09/18 11:40:04;;;;;;;3.77;1.40;;;;;;;23.53;44.92;98388.14;1640251;84;21411;-47
2021/09/18 11:42:40;;;;;;;9.30;1.37;;;;;;;23.50;45.17;98388.49;1607856;86;21107;-50